Huntsville International Carl T Jones Field
KHSV : now visible

Airfield :











YOU CAN JOIN US ON...

 
LOGIN :

Register | Disclaimer

   EN    FR    IT 

 









Legend :    VFR   Marginal VFR   IFR   Intensive IFR   Very Intensive IFR
Visi :
Ceiling :
>= 8 km
>= 3000ft
5 to 8 km
1000 to 3000 ft
1500m to 5 km
500 to 1000 ft
800 to 1500m
200 to 500 ft
< 800m
< 200 ft
Symbols :   Thunderstorms  Fog  Heavy snow  Heavy precipitations  Wind > 20 kt






- Airport Elevation : 629 ft
- IATA code : HSV


KHSV - Huntsville International Carl T Jones Field

CURRENT METAR :
  • 261753Z 12008KT 6SM -RA SCT025 BKN060 OVC100 22/19 A3002 RMK AO2 SLP158 P0000 60001 T02220194 10244 20222 58002

EXPIRED METARs :
  • 261653Z 12013KT 10SM -RA FEW021 BKN055 OVC090 22/19 A3003 RMK AO2 SLP160 P0001 T02220189
  • 261553Z 11012KT 10SM -RA SCT020 BKN043 OVC050 23/19 A3002 RMK AO2 RAB1456E20B53 SLP159 P0000 T02330189

TAF KHSV
Valid from the 26 at 18:00 until the 27 at 18:00 UTC


261720Z 2618/2718 13010G17KT P6SM -SHRA BKN025 OVC250
FM262000 11013G20KT 6SM SHRA SCT035 BKN040
FM270200 12009KT P6SM SCT008 BKN015
FM270700 13007KT P6SM BKN008 OVC015
FM271300 12007KT P6SM SCT015 BKN025
PROB30 2715/2718 4SM -TSRA BKN015CB
KZME FIR / North America



MET'MAP, your aeronautical weather chart ! - Copyright ORBIFLY December 2007 - Disclaimer

ORBIFLY MET'MAP TEAM :

Programming & Development : Alexandra Zaïnal
Concept & original design : Baudouin d'Aumeries
Assistance for programming : Marc-Olivier Méhu
Technical & hardware support : Manuel Goepfert

Contact : metmap@orbifly.com




SOURCES & CREDITS :

   NOAA       Earth
Advisory